createdAt,value
2022-08-20T00:00:24.510Z,20.10
2022-08-20T00:02:54.613Z,20.15
2022-08-20T00:05:33.281Z,20.19
2022-08-20T00:08:04.058Z,20.22
2022-08-20T00:10:35.413Z,20.25
2022-08-20T00:13:04.995Z,20.24
2022-08-20T00:15:36.082Z,20.19
2022-08-20T00:18:04.812Z,20.22
2022-08-20T00:20:38.010Z,20.25
2022-08-20T00:23:10.312Z,20.29
2022-08-20T00:25:39.814Z,20.30
2022-08-20T00:28:08.309Z,20.26
2022-08-20T00:30:37.565Z,20.25
2022-08-20T00:33:08.582Z,20.23
2022-08-20T00:35:41.341Z,20.26
2022-08-20T00:38:09.853Z,20.28
2022-08-20T00:40:41.385Z,20.30
2022-08-20T00:43:27.505Z,20.27
2022-08-20T00:45:57.399Z,20.24
2022-08-20T00:48:26.962Z,20.26
2022-08-20T00:51:00.442Z,20.27
2022-08-20T00:53:29.843Z,20.31
2022-08-20T00:55:58.715Z,20.30
2022-08-20T00:58:27.714Z,20.23
2022-08-20T01:00:57.062Z,20.12
2022-08-20T01:03:25.654Z,19.97
2022-08-20T01:05:54.190Z,19.92
2022-08-20T01:08:26.841Z,19.90
2022-08-20T01:11:07.349Z,19.81
2022-08-20T01:13:38.548Z,19.71
2022-08-20T01:16:18.471Z,19.63
2022-08-20T01:18:49.210Z,19.54
2022-08-20T01:21:25.328Z,19.44
2022-08-20T01:24:06.569Z,19.39
2022-08-20T01:26:40.572Z,19.36
2022-08-20T01:29:14.585Z,19.33
2022-08-20T01:31:44.035Z,19.41
2022-08-20T01:34:14.437Z,19.55
2022-08-20T01:36:48.086Z,19.66
2022-08-20T01:39:23.740Z,19.75
2022-08-20T01:42:04.663Z,19.80
2022-08-20T01:44:34.947Z,19.85
2022-08-20T01:47:12.821Z,19.86
2022-08-20T01:49:46.729Z,19.86
2022-08-20T01:52:23.413Z,19.91
2022-08-20T01:54:52.613Z,19.85
2022-08-20T01:57:27.159Z,19.67
2022-08-20T01:59:56.101Z,19.61
2022-08-20T02:02:26.742Z,19.66
2022-08-20T02:04:55.476Z,19.60
2022-08-20T02:07:24.610Z,19.63
2022-08-20T02:09:53.773Z,19.65
2022-08-20T02:12:23.800Z,19.63
2022-08-20T02:14:54.705Z,19.67
2022-08-20T02:17:25.484Z,19.68
2022-08-20T02:19:58.496Z,19.61
2022-08-20T02:22:34.312Z,19.63
2022-08-20T02:25:03.197Z,19.69
2022-08-20T02:27:34.996Z,19.75
2022-08-20T02:30:05.150Z,19.81
2022-08-20T02:32:35.353Z,19.86
2022-08-20T02:35:05.166Z,19.78
2022-08-20T02:37:33.665Z,19.72
2022-08-20T02:40:02.633Z,19.74
2022-08-20T02:42:31.122Z,19.79
2022-08-20T02:45:00.898Z,19.85
2022-08-20T02:47:29.389Z,19.81
2022-08-20T02:49:59.698Z,19.83
2022-08-20T02:52:28.146Z,19.90
2022-08-20T02:54:56.626Z,19.93
2022-08-20T02:57:25.938Z,19.97
2022-08-20T02:59:54.368Z,20.00
2022-08-20T03:02:24.285Z,20.02
2022-08-20T03:04:52.745Z,20.04
2022-08-20T03:07:21.235Z,20.01
2022-08-20T03:09:49.737Z,19.98
2022-08-20T03:12:18.410Z,19.93
2022-08-20T03:14:47.058Z,19.90
2022-08-20T03:17:16.498Z,19.86
2022-08-20T03:19:46.350Z,19.86
2022-08-20T03:22:14.743Z,19.85
2022-08-20T03:24:43.274Z,19.88
2022-08-20T03:27:14.748Z,19.89
2022-08-20T03:29:43.252Z,19.83
2022-08-20T03:32:11.753Z,19.78
2022-08-20T03:34:40.309Z,19.75
2022-08-20T03:37:11.602Z,19.71
2022-08-20T03:39:40.646Z,19.61
2022-08-20T03:42:09.323Z,19.58
2022-08-20T03:44:38.034Z,19.53
2022-08-20T03:47:09.428Z,19.46
2022-08-20T03:49:37.865Z,19.44
2022-08-20T03:52:06.797Z,19.44
2022-08-20T03:54:36.593Z,19.43
2022-08-20T03:57:12.512Z,19.36
2022-08-20T03:59:41.888Z,19.34
2022-08-20T04:02:11.175Z,19.33
2022-08-20T04:04:41.185Z,19.32
2022-08-20T04:07:14.742Z,19.24
2022-08-20T04:09:44.877Z,19.25
2022-08-20T04:12:13.598Z,19.28
2022-08-20T04:14:42.033Z,19.28
2022-08-20T04:17:13.865Z,19.34
2022-08-20T04:19:43.539Z,19.31
2022-08-20T04:22:13.873Z,19.25
2022-08-20T04:24:44.134Z,19.19
2022-08-20T04:27:14.855Z,19.13
2022-08-20T04:29:44.561Z,19.10
2022-08-20T04:32:13.013Z,19.04
2022-08-20T04:34:41.657Z,19.02
2022-08-20T04:37:17.324Z,19.06
2022-08-20T04:40:08.018Z,19.06
2022-08-20T04:42:37.069Z,18.99
2022-08-20T04:45:07.882Z,18.95
2022-08-20T04:47:36.523Z,18.90
2022-08-20T04:50:09.323Z,18.89
2022-08-20T04:52:39.304Z,18.97
2022-08-20T04:55:10.956Z,18.98
2022-08-20T04:57:39.593Z,18.98
2022-08-20T05:00:12.847Z,18.97
2022-08-20T05:02:42.022Z,18.99
2022-08-20T05:05:11.331Z,18.95
2022-08-20T05:07:41.557Z,18.94
2022-08-20T05:10:13.574Z,18.93
2022-08-20T05:12:43.010Z,18.91
2022-08-20T05:15:26.324Z,18.94
2022-08-20T05:17:57.609Z,18.97
2022-08-20T05:20:31.715Z,18.98
2022-08-20T05:23:00.602Z,19.00
2022-08-20T05:25:32.323Z,19.03
2022-08-20T05:28:02.317Z,19.02
2022-08-20T05:30:33.482Z,19.11
2022-08-20T05:33:03.469Z,19.22
2022-08-20T05:35:33.257Z,19.29
2022-08-20T05:38:02.084Z,19.29
2022-08-20T05:40:31.969Z,19.29
2022-08-20T05:43:00.365Z,19.26
2022-08-20T05:45:28.813Z,19.21
2022-08-20T05:47:57.985Z,19.20
2022-08-20T05:50:26.531Z,19.20
2022-08-20T05:52:55.032Z,19.18
2022-08-20T05:55:24.149Z,19.17
2022-08-20T05:57:58.257Z,19.12
2022-08-20T06:00:28.269Z,19.10
2022-08-20T06:03:28.882Z,19.16
2022-08-20T06:05:57.514Z,19.20
2022-08-20T06:08:25.994Z,19.34
2022-08-20T06:10:54.475Z,19.40
2022-08-20T06:13:24.469Z,19.42
2022-08-20T06:15:52.951Z,19.47
2022-08-20T06:18:27.573Z,19.46
2022-08-20T06:20:57.507Z,19.40
2022-08-20T06:23:26.298Z,19.42
2022-08-20T06:25:54.749Z,19.44
2022-08-20T06:28:24.682Z,19.51
2022-08-20T06:30:53.325Z,19.56
2022-08-20T06:33:22.350Z,19.59
2022-08-20T06:35:50.836Z,19.63
2022-08-20T06:38:20.326Z,19.62
2022-08-20T06:40:49.016Z,19.62
2022-08-20T06:43:17.686Z,19.58
2022-08-20T06:45:47.531Z,19.56
2022-08-20T06:48:17.316Z,19.50
2022-08-20T06:50:48.312Z,19.46
2022-08-20T06:53:19.196Z,19.43
2022-08-20T06:55:51.330Z,19.43
2022-08-20T06:58:22.321Z,19.42
2022-08-20T07:01:10.090Z,19.41
2022-08-20T07:03:42.232Z,19.41
2022-08-20T07:06:23.623Z,19.41
2022-08-20T07:08:52.111Z,19.45
2022-08-20T07:11:27.384Z,19.48
2022-08-20T07:13:58.474Z,19.54
2022-08-20T07:16:28.915Z,19.58
2022-08-20T07:18:58.273Z,19.61
2022-08-20T07:21:26.971Z,19.62
2022-08-20T07:23:55.414Z,19.60
2022-08-20T07:26:24.530Z,19.58
2022-08-20T07:28:53.097Z,19.59
2022-08-20T07:31:39.093Z,19.62
2022-08-20T07:34:13.764Z,19.59
2022-08-20T07:36:43.554Z,19.59
2022-08-20T07:39:12.166Z,19.60
2022-08-20T07:41:40.666Z,19.61
2022-08-20T07:44:09.449Z,19.63
2022-08-20T07:46:37.897Z,19.65
2022-08-20T07:49:10.018Z,19.71
2022-08-20T07:51:40.452Z,19.76
2022-08-20T07:54:08.866Z,19.79
2022-08-20T07:56:37.290Z,19.77
2022-08-20T07:59:07.465Z,19.76
2022-08-20T08:01:35.896Z,19.79
2022-08-20T08:04:04.843Z,19.78
2022-08-20T08:06:33.508Z,19.77
2022-08-20T08:09:07.856Z,19.77
2022-08-20T08:11:39.761Z,19.80
2022-08-20T08:14:10.486Z,19.81
2022-08-20T08:16:39.217Z,19.80
2022-08-20T08:19:11.988Z,19.83
2022-08-20T08:21:41.254Z,19.84
2022-08-20T08:24:15.449Z,19.86
2022-08-20T08:26:49.944Z,19.86
2022-08-20T08:29:18.758Z,19.85
2022-08-20T08:31:47.474Z,19.83
2022-08-20T08:34:15.977Z,19.80
2022-08-20T08:36:44.801Z,19.82
2022-08-20T08:39:15.292Z,19.86
2022-08-20T08:41:49.909Z,19.90
2022-08-20T08:44:24.473Z,19.92
2022-08-20T08:46:58.038Z,19.98
2022-08-20T08:49:30.302Z,20.06
2022-08-20T08:52:12.212Z,20.13
2022-08-20T08:54:48.907Z,20.19
2022-08-20T08:57:17.867Z,20.22
2022-08-20T08:59:53.876Z,20.26
2022-08-20T09:02:34.181Z,20.29
2022-08-20T09:05:05.470Z,20.34
2022-08-20T09:07:37.932Z,20.36
2022-08-20T09:10:09.330Z,20.38
2022-08-20T09:12:37.826Z,20.44
2022-08-20T09:15:07.326Z,20.36
2022-08-20T09:17:36.066Z,20.29
2022-08-20T09:20:05.621Z,20.24
2022-08-20T09:22:35.127Z,20.23
2022-08-20T09:25:03.855Z,20.27
2022-08-20T09:27:34.034Z,20.17
2022-08-20T09:30:03.003Z,20.04
2022-08-20T09:32:31.890Z,20.00
2022-08-20T09:35:08.871Z,20.00
2022-08-20T09:37:38.194Z,19.86
2022-08-20T09:40:08.800Z,19.71
2022-08-20T09:42:52.601Z,19.64
2022-08-20T09:45:21.465Z,19.61
2022-08-20T09:47:56.212Z,19.54
2022-08-20T09:50:26.627Z,19.45
2022-08-20T09:52:56.815Z,19.43
2022-08-20T09:55:32.598Z,19.43
2022-08-20T09:58:06.202Z,19.36
2022-08-20T10:00:34.899Z,19.27
2022-08-20T10:03:03.503Z,19.17
2022-08-20T10:05:32.526Z,19.02
2022-08-20T10:08:01.065Z,18.83
2022-08-20T10:10:29.849Z,18.64
2022-08-20T10:12:58.335Z,18.56
2022-08-20T10:15:28.177Z,18.57
2022-08-20T10:17:57.631Z,18.74
2022-08-20T10:20:27.238Z,18.94
2022-08-20T10:22:55.761Z,19.08
2022-08-20T10:25:24.247Z,19.10
2022-08-20T10:27:52.981Z,19.11
2022-08-20T10:30:22.116Z,19.21
2022-08-20T10:32:51.983Z,19.23
2022-08-20T10:35:21.077Z,19.32
2022-08-20T10:37:49.744Z,19.37
2022-08-20T10:40:18.267Z,19.40
2022-08-20T10:42:46.966Z,19.40
2022-08-20T10:45:17.344Z,19.39
2022-08-20T10:47:45.879Z,19.41
2022-08-20T10:50:17.561Z,19.37
2022-08-20T10:52:46.234Z,19.44
2022-08-20T10:55:15.137Z,19.59
2022-08-20T10:57:44.633Z,19.73
2022-08-20T11:00:17.288Z,19.85
2022-08-20T11:02:45.873Z,19.97
2022-08-20T11:05:15.726Z,20.09
2022-08-20T11:07:54.930Z,20.21
2022-08-20T11:10:27.337Z,20.30
2022-08-20T11:12:56.141Z,20.38
2022-08-20T11:15:24.759Z,20.44
2022-08-20T11:17:53.575Z,20.55
2022-08-20T11:20:25.167Z,20.61
2022-08-20T11:22:53.723Z,20.68
2022-08-20T11:25:22.661Z,20.71
2022-08-20T11:27:52.711Z,20.71
2022-08-20T11:30:24.555Z,20.71
2022-08-20T11:32:53.664Z,20.71
2022-08-20T11:35:42.132Z,20.72
2022-08-20T11:38:12.477Z,20.72
2022-08-20T11:40:40.953Z,20.74
2022-08-20T11:43:17.863Z,20.74
2022-08-20T11:45:49.606Z,20.75
2022-08-20T11:48:18.903Z,20.81
2022-08-20T11:50:50.261Z,20.83
2022-08-20T11:53:19.088Z,20.80
2022-08-20T11:55:48.785Z,20.78
2022-08-20T11:58:17.434Z,20.78
2022-08-20T12:00:46.099Z,20.78
2022-08-20T12:03:14.994Z,20.74
2022-08-20T12:05:46.659Z,20.73
2022-08-20T12:08:26.795Z,20.69
2022-08-20T12:10:58.174Z,20.64
2022-08-20T12:13:30.922Z,20.61
2022-08-20T12:16:15.710Z,20.56
2022-08-20T12:18:44.270Z,20.53
2022-08-20T12:21:13.438Z,20.50
2022-08-20T12:23:43.425Z,20.44
2022-08-20T12:26:12.029Z,20.27
2022-08-20T12:28:40.457Z,20.15
2022-08-20T12:31:09.109Z,20.01
2022-08-20T12:33:37.605Z,19.86
2022-08-20T12:36:06.601Z,19.74
2022-08-20T12:38:35.094Z,19.65
2022-08-20T12:41:05.050Z,19.61
2022-08-20T12:43:33.442Z,19.57
2022-08-20T12:46:01.843Z,19.55
2022-08-20T12:48:30.427Z,19.46
2022-08-20T12:50:58.963Z,19.39
2022-08-20T12:53:27.433Z,19.36
2022-08-20T12:55:56.159Z,19.37
2022-08-20T12:58:25.990Z,19.33
2022-08-20T13:00:54.441Z,19.31
2022-08-20T13:03:22.920Z,19.31
2022-08-20T13:05:51.650Z,19.34
2022-08-20T13:08:20.118Z,19.36
2022-08-20T13:10:49.314Z,19.40
2022-08-20T13:13:20.784Z,19.43
2022-08-20T13:15:52.099Z,19.42
2022-08-20T13:18:21.441Z,19.45
2022-08-20T13:20:50.510Z,19.51
2022-08-20T13:23:19.159Z,19.58
2022-08-20T13:25:47.722Z,19.65
2022-08-20T13:28:16.130Z,19.68
2022-08-20T13:30:44.581Z,19.69
2022-08-20T13:33:14.526Z,19.69
2022-08-20T13:35:42.985Z,19.70
2022-08-20T13:38:11.449Z,19.67
2022-08-20T13:40:39.897Z,19.63
2022-08-20T13:43:12.148Z,19.58
2022-08-20T13:45:42.405Z,19.56
2022-08-20T13:48:15.272Z,19.59
2022-08-20T13:50:47.141Z,19.61
2022-08-20T13:53:17.651Z,19.63
2022-08-20T13:55:46.813Z,19.63
2022-08-20T13:58:15.370Z,19.62
2022-08-20T14:00:44.254Z,19.63
2022-08-20T14:03:13.851Z,19.66
2022-08-20T14:05:49.861Z,19.73
2022-08-20T14:08:20.366Z,19.78
2022-08-20T14:10:51.580Z,19.83
2022-08-20T14:13:22.209Z,19.90
2022-08-20T14:15:50.714Z,19.99
2022-08-20T14:18:19.902Z,20.08
2022-08-20T14:20:50.798Z,20.13
2022-08-20T14:23:19.420Z,20.19
2022-08-20T14:25:49.506Z,20.26
2022-08-20T14:28:21.034Z,20.32
2022-08-20T14:30:52.884Z,20.35
2022-08-20T14:33:23.157Z,20.40
2022-08-20T14:35:53.706Z,20.42
2022-08-20T14:38:22.617Z,20.44
2022-08-20T14:40:52.086Z,20.47
2022-08-20T14:43:20.713Z,20.50
2022-08-20T14:45:49.316Z,20.51
2022-08-20T14:48:17.823Z,20.51
2022-08-20T14:50:46.503Z,20.51
2022-08-20T14:53:16.453Z,20.53
2022-08-20T14:55:45.000Z,20.54
2022-08-20T14:58:16.919Z,20.58
2022-08-20T15:00:45.580Z,20.60
2022-08-20T15:03:14.489Z,20.62
2022-08-20T15:05:43.926Z,20.61
2022-08-20T15:08:13.089Z,20.59
2022-08-20T15:10:43.297Z,20.58
2022-08-20T15:13:11.857Z,20.56
2022-08-20T15:15:40.538Z,20.56
2022-08-20T15:18:08.998Z,20.55
2022-08-20T15:20:38.508Z,20.54
2022-08-20T15:23:07.702Z,20.54
2022-08-20T15:25:37.845Z,20.49
2022-08-20T15:28:10.447Z,20.41
2022-08-20T15:30:41.414Z,20.35
2022-08-20T15:33:10.831Z,20.29
2022-08-20T15:35:40.294Z,20.23
2022-08-20T15:38:08.835Z,20.16
2022-08-20T15:40:37.562Z,20.04
2022-08-20T15:43:07.959Z,19.87
2022-08-20T15:45:37.306Z,19.68
2022-08-20T15:48:13.087Z,19.54
2022-08-20T15:51:10.846Z,19.41
2022-08-20T15:53:55.897Z,19.34
2022-08-20T15:56:48.870Z,19.37
2022-08-20T15:59:39.705Z,19.42
2022-08-20T16:02:25.548Z,19.39
2022-08-20T16:05:10.326Z,19.42
2022-08-20T16:07:49.537Z,19.43
2022-08-20T16:10:23.678Z,19.48
2022-08-20T16:12:55.890Z,19.40
2022-08-20T16:15:29.605Z,19.39
2022-08-20T16:18:06.930Z,19.38
2022-08-20T16:20:42.305Z,19.34
2022-08-20T16:23:12.883Z,19.20
2022-08-20T16:25:59.782Z,19.13
2022-08-20T16:28:32.814Z,19.21
2022-08-20T16:31:07.723Z,19.28
2022-08-20T16:33:40.769Z,19.28
2022-08-20T16:36:14.634Z,19.30
2022-08-20T16:38:51.805Z,19.31
2022-08-20T16:41:28.711Z,19.23
2022-08-20T16:44:02.702Z,19.11
2022-08-20T16:46:38.225Z,19.07
2022-08-20T16:49:13.840Z,19.01
2022-08-20T16:51:50.928Z,18.95
2022-08-20T16:54:28.378Z,18.98
2022-08-20T16:57:03.441Z,19.01
2022-08-20T16:59:32.975Z,19.01
2022-08-20T17:02:07.161Z,19.03
2022-08-20T17:04:58.529Z,19.00
2022-08-20T17:07:33.475Z,18.93
2022-08-20T17:10:17.834Z,18.97
2022-08-20T17:12:47.076Z,19.01
2022-08-20T17:15:25.588Z,19.04
2022-08-20T17:17:55.984Z,19.03
2022-08-20T17:20:28.037Z,19.06
2022-08-20T17:23:10.471Z,19.07
2022-08-20T17:25:39.190Z,19.09
2022-08-20T17:28:15.581Z,19.05
2022-08-20T17:30:46.221Z,19.05
2022-08-20T17:33:30.256Z,19.03
2022-08-20T17:36:02.537Z,19.00
2022-08-20T17:38:38.094Z,19.03
2022-08-20T17:41:13.995Z,19.10
2022-08-20T17:43:46.733Z,19.10
2022-08-20T17:46:17.448Z,19.14
2022-08-20T17:48:48.903Z,19.22
2022-08-20T17:51:21.403Z,19.27
2022-08-20T17:53:52.968Z,19.30
2022-08-20T17:56:24.413Z,19.32
2022-08-20T17:58:59.090Z,19.31
2022-08-20T18:01:32.248Z,19.31
2022-08-20T18:04:02.160Z,19.34
2022-08-20T18:06:38.435Z,19.37
2022-08-20T18:09:15.012Z,19.38
2022-08-20T18:11:50.472Z,19.35
2022-08-20T18:14:27.126Z,19.32
2022-08-20T18:17:15.269Z,19.31
2022-08-20T18:20:09.861Z,19.25
2022-08-20T18:22:48.600Z,19.21
2022-08-20T18:25:26.410Z,19.19
2022-08-20T18:27:59.200Z,19.22
2022-08-20T18:30:28.014Z,19.22
2022-08-20T18:33:05.366Z,19.20
2022-08-20T18:35:45.933Z,19.19
2022-08-20T18:38:31.056Z,19.18
2022-08-20T18:41:11.219Z,19.10
2022-08-20T18:43:40.612Z,19.04
2022-08-20T18:46:15.679Z,18.98
2022-08-20T18:48:55.847Z,18.96
2022-08-20T18:51:33.344Z,18.89
2022-08-20T18:54:02.707Z,18.85
2022-08-20T18:56:34.723Z,18.86
2022-08-20T18:59:07.049Z,18.84
2022-08-20T19:01:37.538Z,18.85
2022-08-20T19:04:18.824Z,18.84
2022-08-20T19:06:56.913Z,18.83
2022-08-20T19:09:55.866Z,18.82
2022-08-20T19:12:46.397Z,18.82
2022-08-20T19:15:17.438Z,18.84
2022-08-20T19:18:02.878Z,18.79
2022-08-20T19:20:34.542Z,18.78
2022-08-20T19:23:13.502Z,18.76
2022-08-20T19:25:55.672Z,18.75
2022-08-20T19:28:28.177Z,18.72
2022-08-20T19:30:57.277Z,18.68
2022-08-20T19:33:30.990Z,18.67
2022-08-20T19:36:11.549Z,18.69
2022-08-20T19:38:46.502Z,18.65
2022-08-20T19:41:30.910Z,18.65
2022-08-20T19:44:00.809Z,18.63
2022-08-20T19:46:32.661Z,18.62
2022-08-20T19:49:15.300Z,18.61
2022-08-20T19:51:54.878Z,18.63
2022-08-20T19:54:28.678Z,18.62
2022-08-20T19:56:58.161Z,18.66
2022-08-20T19:59:27.650Z,18.69
2022-08-20T20:02:00.365Z,18.69
2022-08-20T20:04:37.274Z,18.68
2022-08-20T20:07:09.381Z,18.68
2022-08-20T20:09:42.444Z,18.65
2022-08-20T20:12:21.473Z,18.63
2022-08-20T20:14:53.963Z,18.56
2022-08-20T20:17:25.849Z,18.51
2022-08-20T20:19:59.085Z,18.46
2022-08-20T20:22:30.538Z,18.41
2022-08-20T20:25:03.944Z,18.40
2022-08-20T20:27:33.314Z,18.38
2022-08-20T20:30:04.640Z,18.36
2022-08-20T20:32:34.686Z,18.28
2022-08-20T20:35:06.994Z,18.27
2022-08-20T20:37:48.891Z,18.25
2022-08-20T20:40:27.534Z,18.24
2022-08-20T20:43:04.688Z,18.22
2022-08-20T20:45:35.999Z,18.20
2022-08-20T20:48:18.153Z,18.20
2022-08-20T20:50:48.449Z,18.23
2022-08-20T20:53:31.411Z,18.22
2022-08-20T20:56:33.057Z,18.25
2022-08-20T20:59:06.244Z,18.29
2022-08-20T21:01:49.412Z,18.28
2022-08-20T21:04:21.300Z,18.26
2022-08-20T21:06:50.040Z,18.25
2022-08-20T21:09:19.772Z,18.25
2022-08-20T21:11:49.860Z,18.25
2022-08-20T21:14:19.144Z,18.24
2022-08-20T21:16:48.312Z,18.26
2022-08-20T21:19:17.010Z,18.26
2022-08-20T21:21:45.613Z,18.25
2022-08-20T21:24:14.203Z,18.29
2022-08-20T21:26:42.872Z,18.36
2022-08-20T21:29:17.157Z,18.38
2022-08-20T21:31:47.059Z,18.37
2022-08-20T21:34:17.324Z,18.35
2022-08-20T21:36:46.521Z,18.34
2022-08-20T21:39:15.175Z,18.32
2022-08-20T21:41:45.196Z,18.29
2022-08-20T21:44:21.304Z,18.30
2022-08-20T21:46:50.458Z,18.29
2022-08-20T21:49:19.653Z,18.29
2022-08-20T21:51:48.809Z,18.30
2022-08-20T21:54:17.950Z,18.32
2022-08-20T21:56:49.547Z,18.34
2022-08-20T21:59:22.085Z,18.35
2022-08-20T22:01:51.403Z,18.34
2022-08-20T22:04:20.878Z,18.27
2022-08-20T22:06:50.129Z,18.23
2022-08-20T22:09:18.873Z,18.24
2022-08-20T22:11:55.757Z,18.20
2022-08-20T22:14:29.257Z,18.19
2022-08-20T22:16:57.862Z,18.20
2022-08-20T22:19:26.644Z,18.20
2022-08-20T22:21:56.745Z,18.19
2022-08-20T22:24:27.360Z,18.16
2022-08-20T22:26:56.180Z,18.08
2022-08-20T22:29:25.444Z,18.07
2022-08-20T22:31:55.360Z,18.04
2022-08-20T22:34:23.977Z,18.04
2022-08-20T22:36:55.645Z,18.08
2022-08-20T22:39:24.326Z,18.12
2022-08-20T22:41:53.100Z,18.13
2022-08-20T22:44:21.632Z,18.16
2022-08-20T22:46:55.202Z,18.20
2022-08-20T22:49:28.877Z,18.21
2022-08-20T22:51:57.687Z,18.23
2022-08-20T22:54:27.018Z,18.26
2022-08-20T22:56:55.860Z,18.27
2022-08-20T22:59:25.733Z,18.31
2022-08-20T23:01:54.864Z,18.32
2022-08-20T23:04:28.537Z,18.34
2022-08-20T23:06:57.944Z,18.33
2022-08-20T23:09:26.896Z,18.27
2022-08-20T23:11:55.468Z,18.21
2022-08-20T23:14:27.038Z,18.20
2022-08-20T23:17:01.601Z,18.21
2022-08-20T23:19:31.827Z,18.17
2022-08-20T23:22:00.190Z,18.12
2022-08-20T23:24:28.640Z,18.12
2022-08-20T23:26:57.245Z,18.13
2022-08-20T23:29:27.310Z,18.10
2022-08-20T23:31:57.035Z,18.05
2022-08-20T23:34:26.136Z,17.99
2022-08-20T23:36:57.633Z,18.02
2022-08-20T23:39:26.672Z,18.01
2022-08-20T23:41:55.465Z,17.95
2022-08-20T23:44:27.294Z,17.95
2022-08-20T23:46:58.087Z,17.94
2022-08-20T23:49:28.504Z,17.92
2022-08-20T23:52:00.388Z,17.89
2022-08-20T23:54:29.286Z,17.87
2022-08-20T23:56:57.869Z,17.79
2022-08-20T23:59:26.852Z,17.82
